sensor_id;sensor_type;location;lat;lon;timestamp;temperature;humidity
51982;DHT22;37998;53.416;6.730;2023-05-19T00:00:58;10.40;99.90
51982;DHT22;37998;53.416;6.730;2023-05-19T00:03:25;10.40;99.90
51982;DHT22;37998;53.416;6.730;2023-05-19T00:05:55;10.40;99.90
51982;DHT22;37998;53.416;6.730;2023-05-19T00:08:23;10.40;99.90
51982;DHT22;37998;53.416;6.730;2023-05-19T00:10:49;10.50;99.90
51982;DHT22;37998;53.416;6.730;2023-05-19T00:13:16;10.40;99.90
51982;DHT22;37998;53.416;6.730;2023-05-19T00:15:42;10.40;99.90
51982;DHT22;37998;53.416;6.730;2023-05-19T00:18:08;10.40;99.90
51982;DHT22;37998;53.416;6.730;2023-05-19T00:20:34;10.40;99.90
51982;DHT22;37998;53.416;6.730;2023-05-19T00:23:02;10.40;99.90
51982;DHT22;37998;53.416;6.730;2023-05-19T00:25:28;10.40;99.90
51982;DHT22;37998;53.416;6.730;2023-05-19T00:27:54;10.40;99.90
51982;DHT22;37998;53.416;6.730;2023-05-19T00:30:20;10.40;99.90
51982;DHT22;37998;53.416;6.730;2023-05-19T00:32:47;10.40;99.90
51982;DHT22;37998;53.416;6.730;2023-05-19T00:35:13;10.40;99.90
51982;DHT22;37998;53.416;6.730;2023-05-19T00:37:40;10.50;99.90
51982;DHT22;37998;53.416;6.730;2023-05-19T00:40:07;10.40;99.90
51982;DHT22;37998;53.416;6.730;2023-05-19T00:42:33;10.40;99.90
51982;DHT22;37998;53.416;6.730;2023-05-19T00:44:59;10.40;99.90
51982;DHT22;37998;53.416;6.730;2023-05-19T00:47:25;10.30;99.90
51982;DHT22;37998;53.416;6.730;2023-05-19T00:49:51;10.30;99.90
51982;DHT22;37998;53.416;6.730;2023-05-19T00:52:17;10.40;99.90
51982;DHT22;37998;53.416;6.730;2023-05-19T00:54:44;10.30;99.90
51982;DHT22;37998;53.416;6.730;2023-05-19T00:57:12;10.30;99.90
51982;DHT22;37998;53.416;6.730;2023-05-19T00:59:39;10.30;99.90
51982;DHT22;37998;53.416;6.730;2023-05-19T01:02:04;10.40;99.90
51982;DHT22;37998;53.416;6.730;2023-05-19T01:04:32;10.30;99.90
51982;DHT22;37998;53.416;6.730;2023-05-19T01:06:59;10.30;99.90
51982;DHT22;37998;53.416;6.730;2023-05-19T01:09:25;10.30;99.90
51982;DHT22;37998;53.416;6.730;2023-05-19T01:11:52;10.30;99.90
51982;DHT22;37998;53.416;6.730;2023-05-19T01:14:18;10.30;99.90
51982;DHT22;37998;53.416;6.730;2023-05-19T01:17:03;10.30;99.90
51982;DHT22;37998;53.416;6.730;2023-05-19T01:30:53;10.10;99.90
51982;DHT22;37998;53.416;6.730;2023-05-19T01:33:21;10.10;99.90
51982;DHT22;37998;53.416;6.730;2023-05-19T01:35:48;10.10;99.90
51982;DHT22;37998;53.416;6.730;2023-05-19T01:38:16;10.10;99.90
51982;DHT22;37998;53.416;6.730;2023-05-19T01:40:44;10.10;99.90
51982;DHT22;37998;53.416;6.730;2023-05-19T01:43:14;10.10;99.90
51982;DHT22;37998;53.416;6.730;2023-05-19T01:45:43;10.10;99.90
51982;DHT22;37998;53.416;6.730;2023-05-19T01:48:09;10.10;99.90
51982;DHT22;37998;53.416;6.730;2023-05-19T01:50:38;10.00;99.90
51982;DHT22;37998;53.416;6.730;2023-05-19T01:53:04;10.10;99.90
51982;DHT22;37998;53.416;6.730;2023-05-19T01:55:35;10.10;99.90
51982;DHT22;37998;53.416;6.730;2023-05-19T02:09:02;10.10;99.90
51982;DHT22;37998;53.416;6.730;2023-05-19T02:11:37;10.10;99.90
51982;DHT22;37998;53.416;6.730;2023-05-19T02:14:10;10.10;99.90
51982;DHT22;37998;53.416;6.730;2023-05-19T02:16:38;10.00;99.90
51982;DHT22;37998;53.416;6.730;2023-05-19T02:19:04;10.00;99.90
51982;DHT22;37998;53.416;6.730;2023-05-19T02:21:32;10.00;99.90
51982;DHT22;37998;53.416;6.730;2023-05-19T02:23:58;9.90;99.90
51982;DHT22;37998;53.416;6.730;2023-05-19T02:26:24;9.90;99.90
51982;DHT22;37998;53.416;6.730;2023-05-19T02:28:50;9.90;99.90
51982;DHT22;37998;53.416;6.730;2023-05-19T02:31:16;9.80;99.90
51982;DHT22;37998;53.416;6.730;2023-05-19T02:33:42;9.90;99.90
51982;DHT22;37998;53.416;6.730;2023-05-19T02:36:08;9.90;99.90
51982;DHT22;37998;53.416;6.730;2023-05-19T02:38:34;9.90;99.90
51982;DHT22;37998;53.416;6.730;2023-05-19T02:41:00;9.90;99.90
51982;DHT22;37998;53.416;6.730;2023-05-19T02:43:26;9.90;99.90
51982;DHT22;37998;53.416;6.730;2023-05-19T02:45:55;9.90;99.90
51982;DHT22;37998;53.416;6.730;2023-05-19T02:48:20;9.90;99.90
51982;DHT22;37998;53.416;6.730;2023-05-19T02:50:46;9.90;99.90
51982;DHT22;37998;53.416;6.730;2023-05-19T02:53:12;9.90;99.90
51982;DHT22;37998;53.416;6.730;2023-05-19T02:55:38;9.90;99.90
51982;DHT22;37998;53.416;6.730;2023-05-19T02:58:04;9.90;99.90
51982;DHT22;37998;53.416;6.730;2023-05-19T03:00:30;9.90;99.90
51982;DHT22;37998;53.416;6.730;2023-05-19T03:02:56;9.90;99.90
51982;DHT22;37998;53.416;6.730;2023-05-19T03:05:27;9.90;99.90
51982;DHT22;37998;53.416;6.730;2023-05-19T03:07:55;9.90;99.90
51982;DHT22;37998;53.416;6.730;2023-05-19T03:10:21;9.90;99.90
51982;DHT22;37998;53.416;6.730;2023-05-19T03:12:46;9.80;99.90
51982;DHT22;37998;53.416;6.730;2023-05-19T03:15:12;9.90;99.90
51982;DHT22;37998;53.416;6.730;2023-05-19T03:17:39;9.80;99.90
51982;DHT22;37998;53.416;6.730;2023-05-19T03:20:06;9.80;99.90
51982;DHT22;37998;53.416;6.730;2023-05-19T03:22:32;9.80;99.90
51982;DHT22;37998;53.416;6.730;2023-05-19T03:24:58;9.80;99.90
51982;DHT22;37998;53.416;6.730;2023-05-19T03:27:24;9.80;99.90
51982;DHT22;37998;53.416;6.730;2023-05-19T03:29:50;9.90;99.90
51982;DHT22;37998;53.416;6.730;2023-05-19T03:32:18;9.80;99.90
51982;DHT22;37998;53.416;6.730;2023-05-19T03:34:45;9.80;99.90
51982;DHT22;37998;53.416;6.730;2023-05-19T03:37:11;9.80;99.90
51982;DHT22;37998;53.416;6.730;2023-05-19T03:39:39;9.80;99.90
51982;DHT22;37998;53.416;6.730;2023-05-19T03:42:05;9.80;99.90
51982;DHT22;37998;53.416;6.730;2023-05-19T03:44:31;9.80;99.90
51982;DHT22;37998;53.416;6.730;2023-05-19T03:46:59;9.80;99.90
51982;DHT22;37998;53.416;6.730;2023-05-19T03:49:45;9.90;99.90
51982;DHT22;37998;53.416;6.730;2023-05-19T03:52:13;9.90;99.90
51982;DHT22;37998;53.416;6.730;2023-05-19T03:54:56;9.90;99.90
51982;DHT22;37998;53.416;6.730;2023-05-19T03:57:22;9.90;99.90
51982;DHT22;37998;53.416;6.730;2023-05-19T03:59:48;9.80;99.90
51982;DHT22;37998;53.416;6.730;2023-05-19T04:02:14;9.90;99.90
51982;DHT22;37998;53.416;6.730;2023-05-19T04:04:40;9.80;99.90
51982;DHT22;37998;53.416;6.730;2023-05-19T04:07:06;9.80;99.90
51982;DHT22;37998;53.416;6.730;2023-05-19T04:09:32;9.80;99.90
51982;DHT22;37998;53.416;6.730;2023-05-19T04:12:00;9.80;99.90
51982;DHT22;37998;53.416;6.730;2023-05-19T04:14:29;9.80;99.90
51982;DHT22;37998;53.416;6.730;2023-05-19T04:16:56;9.80;99.90
51982;DHT22;37998;53.416;6.730;2023-05-19T04:19:22;9.80;99.90
51982;DHT22;37998;53.416;6.730;2023-05-19T04:21:48;9.80;99.90
51982;DHT22;37998;53.416;6.730;2023-05-19T04:24:13;9.90;99.90
51982;DHT22;37998;53.416;6.730;2023-05-19T04:26:40;9.90;99.90
51982;DHT22;37998;53.416;6.730;2023-05-19T04:29:11;9.90;99.90
51982;DHT22;37998;53.416;6.730;2023-05-19T04:31:41;9.90;99.90
51982;DHT22;37998;53.416;6.730;2023-05-19T04:34:07;9.90;99.90
51982;DHT22;37998;53.416;6.730;2023-05-19T04:36:33;9.90;99.90
51982;DHT22;37998;53.416;6.730;2023-05-19T04:39:01;10.00;99.90
51982;DHT22;37998;53.416;6.730;2023-05-19T04:41:30;10.00;99.90
51982;DHT22;37998;53.416;6.730;2023-05-19T04:43:56;10.00;99.90
51982;DHT22;37998;53.416;6.730;2023-05-19T04:46:22;10.10;99.90
51982;DHT22;37998;53.416;6.730;2023-05-19T04:48:49;10.00;99.90
51982;DHT22;37998;53.416;6.730;2023-05-19T04:51:15;10.20;99.90
51982;DHT22;37998;53.416;6.730;2023-05-19T04:53:42;10.10;99.90
51982;DHT22;37998;53.416;6.730;2023-05-19T04:56:10;10.20;99.90
51982;DHT22;37998;53.416;6.730;2023-05-19T04:58:40;10.20;99.90
51982;DHT22;37998;53.416;6.730;2023-05-19T05:01:31;10.20;99.90
51982;DHT22;37998;53.416;6.730;2023-05-19T05:03:57;10.20;99.90
51982;DHT22;37998;53.416;6.730;2023-05-19T05:06:24;10.20;99.90
51982;DHT22;37998;53.416;6.730;2023-05-19T05:08:50;10.30;99.90
51982;DHT22;37998;53.416;6.730;2023-05-19T05:11:17;10.30;99.90
51982;DHT22;37998;53.416;6.730;2023-05-19T05:13:43;10.40;99.90
51982;DHT22;37998;53.416;6.730;2023-05-19T05:16:09;10.40;99.90
51982;DHT22;37998;53.416;6.730;2023-05-19T05:18:36;10.50;99.90
51982;DHT22;37998;53.416;6.730;2023-05-19T05:21:04;10.60;99.90
51982;DHT22;37998;53.416;6.730;2023-05-19T05:23:32;10.60;99.90
51982;DHT22;37998;53.416;6.730;2023-05-19T05:25:58;10.70;99.90
51982;DHT22;37998;53.416;6.730;2023-05-19T05:28:24;10.70;99.90
51982;DHT22;37998;53.416;6.730;2023-05-19T05:30:50;10.80;99.90
51982;DHT22;37998;53.416;6.730;2023-05-19T05:33:17;10.90;99.90
51982;DHT22;37998;53.416;6.730;2023-05-19T05:35:44;11.00;99.90
51982;DHT22;37998;53.416;6.730;2023-05-19T05:38:12;11.00;99.90
51982;DHT22;37998;53.416;6.730;2023-05-19T05:40:39;11.10;99.90
51982;DHT22;37998;53.416;6.730;2023-05-19T05:43:05;11.10;99.90
51982;DHT22;37998;53.416;6.730;2023-05-19T05:45:34;11.10;99.90
51982;DHT22;37998;53.416;6.730;2023-05-19T05:48:01;11.10;99.90
51982;DHT22;37998;53.416;6.730;2023-05-19T05:50:27;11.20;99.90
51982;DHT22;37998;53.416;6.730;2023-05-19T05:52:54;11.30;99.90
51982;DHT22;37998;53.416;6.730;2023-05-19T05:55:23;11.40;99.90
51982;DHT22;37998;53.416;6.730;2023-05-19T05:57:49;12.20;99.90
51982;DHT22;37998;53.416;6.730;2023-05-19T06:00:16;11.40;99.90
51982;DHT22;37998;53.416;6.730;2023-05-19T06:02:47;11.50;99.90
51982;DHT22;37998;53.416;6.730;2023-05-19T06:05:15;11.60;99.90
51982;DHT22;37998;53.416;6.730;2023-05-19T06:07:42;11.60;99.90
51982;DHT22;37998;53.416;6.730;2023-05-19T06:10:10;11.70;99.90
51982;DHT22;37998;53.416;6.730;2023-05-19T06:12:36;11.60;99.90
51982;DHT22;37998;53.416;6.730;2023-05-19T06:15:06;11.70;99.90
51982;DHT22;37998;53.416;6.730;2023-05-19T06:17:49;11.80;99.90
51982;DHT22;37998;53.416;6.730;2023-05-19T06:20:17;11.80;99.90
51982;DHT22;37998;53.416;6.730;2023-05-19T06:22:43;11.90;99.90
51982;DHT22;37998;53.416;6.730;2023-05-19T06:25:09;12.00;99.90
51982;DHT22;37998;53.416;6.730;2023-05-19T06:27:35;12.00;99.90
51982;DHT22;37998;53.416;6.730;2023-05-19T06:30:02;12.10;99.90
51982;DHT22;37998;53.416;6.730;2023-05-19T06:32:33;12.10;99.90
51982;DHT22;37998;53.416;6.730;2023-05-19T06:34:59;12.10;99.90
51982;DHT22;37998;53.416;6.730;2023-05-19T06:37:25;12.20;99.90
51982;DHT22;37998;53.416;6.730;2023-05-19T06:39:52;12.20;99.90
51982;DHT22;37998;53.416;6.730;2023-05-19T06:42:19;12.30;99.90
51982;DHT22;37998;53.416;6.730;2023-05-19T06:44:56;12.40;99.90
51982;DHT22;37998;53.416;6.730;2023-05-19T06:47:22;12.40;99.90
51982;DHT22;37998;53.416;6.730;2023-05-19T06:49:49;12.50;99.90
51982;DHT22;37998;53.416;6.730;2023-05-19T06:52:21;12.50;99.90
51982;DHT22;37998;53.416;6.730;2023-05-19T06:54:48;12.60;99.90
51982;DHT22;37998;53.416;6.730;2023-05-19T06:57:15;12.60;99.90
51982;DHT22;37998;53.416;6.730;2023-05-19T06:59:40;12.80;99.90
51982;DHT22;37998;53.416;6.730;2023-05-19T07:02:08;12.80;99.90
51982;DHT22;37998;53.416;6.730;2023-05-19T07:04:35;13.00;99.90
51982;DHT22;37998;53.416;6.730;2023-05-19T07:07:01;13.10;99.90
51982;DHT22;37998;53.416;6.730;2023-05-19T07:09:28;13.20;99.90
51982;DHT22;37998;53.416;6.730;2023-05-19T07:11:55;13.30;99.90
51982;DHT22;37998;53.416;6.730;2023-05-19T07:14:22;13.40;99.90
51982;DHT22;37998;53.416;6.730;2023-05-19T07:16:48;13.50;99.90
51982;DHT22;37998;53.416;6.730;2023-05-19T07:19:13;13.60;99.90
51982;DHT22;37998;53.416;6.730;2023-05-19T07:21:39;13.70;99.90
51982;DHT22;37998;53.416;6.730;2023-05-19T07:24:07;13.90;99.90
51982;DHT22;37998;53.416;6.730;2023-05-19T07:26:33;14.00;99.90
51982;DHT22;37998;53.416;6.730;2023-05-19T07:28:59;14.00;99.90
51982;DHT22;37998;53.416;6.730;2023-05-19T07:31:25;14.10;99.90
51982;DHT22;37998;53.416;6.730;2023-05-19T07:33:51;14.20;99.90
51982;DHT22;37998;53.416;6.730;2023-05-19T07:36:17;14.20;99.90
51982;DHT22;37998;53.416;6.730;2023-05-19T07:38:43;14.30;99.90
51982;DHT22;37998;53.416;6.730;2023-05-19T07:41:09;14.30;99.90
51982;DHT22;37998;53.416;6.730;2023-05-19T07:43:35;14.40;99.90
51982;DHT22;37998;53.416;6.730;2023-05-19T07:46:01;14.50;99.90
51982;DHT22;37998;53.416;6.730;2023-05-19T07:48:27;14.60;99.90
51982;DHT22;37998;53.416;6.730;2023-05-19T07:50:54;14.70;99.90
51982;DHT22;37998;53.416;6.730;2023-05-19T07:53:20;14.70;99.90
51982;DHT22;37998;53.416;6.730;2023-05-19T07:55:47;14.80;99.90
51982;DHT22;37998;53.416;6.730;2023-05-19T07:58:13;14.70;99.90
51982;DHT22;37998;53.416;6.730;2023-05-19T08:00:40;14.80;99.90
51982;DHT22;37998;53.416;6.730;2023-05-19T08:03:10;14.90;99.90
51982;DHT22;37998;53.416;6.730;2023-05-19T08:05:36;15.00;99.90
51982;DHT22;37998;53.416;6.730;2023-05-19T08:08:02;15.10;99.90
51982;DHT22;37998;53.416;6.730;2023-05-19T08:10:28;15.20;99.90
51982;DHT22;37998;53.416;6.730;2023-05-19T08:12:54;15.50;99.90
51982;DHT22;37998;53.416;6.730;2023-05-19T08:15:20;15.60;99.90
51982;DHT22;37998;53.416;6.730;2023-05-19T08:17:46;15.90;99.90
51982;DHT22;37998;53.416;6.730;2023-05-19T08:20:12;16.10;99.90
51982;DHT22;37998;53.416;6.730;2023-05-19T08:22:38;16.40;99.90
51982;DHT22;37998;53.416;6.730;2023-05-19T08:25:04;16.50;99.90
51982;DHT22;37998;53.416;6.730;2023-05-19T08:27:31;16.60;99.60
51982;DHT22;37998;53.416;6.730;2023-05-19T08:29:57;16.90;99.50
51982;DHT22;37998;53.416;6.730;2023-05-19T08:32:23;16.80;98.70
51982;DHT22;37998;53.416;6.730;2023-05-19T08:34:49;16.40;98.40
51982;DHT22;37998;53.416;6.730;2023-05-19T08:37:15;16.00;98.40
51982;DHT22;37998;53.416;6.730;2023-05-19T08:39:41;15.70;98.50
51982;DHT22;37998;53.416;6.730;2023-05-19T08:42:07;15.60;99.10
51982;DHT22;37998;53.416;6.730;2023-05-19T08:44:36;15.60;99.20
51982;DHT22;37998;53.416;6.730;2023-05-19T08:47:03;15.50;99.10
51982;DHT22;37998;53.416;6.730;2023-05-19T08:49:45;15.50;99.20
51982;DHT22;37998;53.416;6.730;2023-05-19T08:57:32;15.60;99.10
51982;DHT22;37998;53.416;6.730;2023-05-19T08:59:59;15.50;98.80
51982;DHT22;37998;53.416;6.730;2023-05-19T09:02:26;15.50;99.30
51982;DHT22;37998;53.416;6.730;2023-05-19T09:04:52;15.40;99.90
51982;DHT22;37998;53.416;6.730;2023-05-19T09:07:18;15.50;99.90
51982;DHT22;37998;53.416;6.730;2023-05-19T09:09:45;15.40;99.90
51982;DHT22;37998;53.416;6.730;2023-05-19T09:12:12;15.60;99.90
51982;DHT22;37998;53.416;6.730;2023-05-19T09:14:38;15.50;99.90
51982;DHT22;37998;53.416;6.730;2023-05-19T09:17:05;15.40;99.90
51982;DHT22;37998;53.416;6.730;2023-05-19T09:19:31;15.50;99.90
51982;DHT22;37998;53.416;6.730;2023-05-19T09:22:01;15.50;99.90
51982;DHT22;37998;53.416;6.730;2023-05-19T09:24:29;15.40;99.90
51982;DHT22;37998;53.416;6.730;2023-05-19T09:26:56;15.40;99.90
51982;DHT22;37998;53.416;6.730;2023-05-19T09:29:22;15.40;99.90
51982;DHT22;37998;53.416;6.730;2023-05-19T09:31:52;15.30;99.90
51982;DHT22;37998;53.416;6.730;2023-05-19T09:34:22;15.40;99.90
51982;DHT22;37998;53.416;6.730;2023-05-19T09:36:49;15.30;99.90
51982;DHT22;37998;53.416;6.730;2023-05-19T09:39:18;15.30;99.90
51982;DHT22;37998;53.416;6.730;2023-05-19T09:41:45;15.20;99.90
51982;DHT22;37998;53.416;6.730;2023-05-19T09:44:20;15.20;99.90
51982;DHT22;37998;53.416;6.730;2023-05-19T09:46:51;15.30;99.90
51982;DHT22;37998;53.416;6.730;2023-05-19T09:49:22;15.40;99.90
51982;DHT22;37998;53.416;6.730;2023-05-19T09:51:52;15.30;99.90
51982;DHT22;37998;53.416;6.730;2023-05-19T09:54:20;15.50;99.90
51982;DHT22;37998;53.416;6.730;2023-05-19T09:57:11;15.50;99.90
51982;DHT22;37998;53.416;6.730;2023-05-19T09:59:37;15.60;99.50
51982;DHT22;37998;53.416;6.730;2023-05-19T10:02:04;15.50;98.90
51982;DHT22;37998;53.416;6.730;2023-05-19T10:04:30;15.60;98.60
51982;DHT22;37998;53.416;6.730;2023-05-19T10:06:57;15.60;98.50
51982;DHT22;37998;53.416;6.730;2023-05-19T10:09:30;15.60;98.40
51982;DHT22;37998;53.416;6.730;2023-05-19T10:11:57;15.60;97.90
51982;DHT22;37998;53.416;6.730;2023-05-19T10:14:25;15.70;97.10
51982;DHT22;37998;53.416;6.730;2023-05-19T10:16:56;15.80;97.00
51982;DHT22;37998;53.416;6.730;2023-05-19T10:19:26;15.90;97.00
51982;DHT22;37998;53.416;6.730;2023-05-19T10:21:52;15.80;96.50
51982;DHT22;37998;53.416;6.730;2023-05-19T10:24:19;15.70;96.00
51982;DHT22;37998;53.416;6.730;2023-05-19T10:26:49;15.70;97.20
51982;DHT22;37998;53.416;6.730;2023-05-19T10:29:27;15.70;96.70
51982;DHT22;37998;53.416;6.730;2023-05-19T10:31:58;15.60;96.50
51982;DHT22;37998;53.416;6.730;2023-05-19T10:40:19;15.40;97.50
51982;DHT22;37998;53.416;6.730;2023-05-19T10:45:51;15.70;97.30
51982;DHT22;37998;53.416;6.730;2023-05-19T10:48:21;15.70;95.30
51982;DHT22;37998;53.416;6.730;2023-05-19T10:50:53;15.80;95.50
51982;DHT22;37998;53.416;6.730;2023-05-19T10:53:20;15.90;95.40
51982;DHT22;37998;53.416;6.730;2023-05-19T10:55:54;15.80;95.80
51982;DHT22;37998;53.416;6.730;2023-05-19T10:58:36;15.80;95.00
51982;DHT22;37998;53.416;6.730;2023-05-19T11:01:07;15.80;94.50
51982;DHT22;37998;53.416;6.730;2023-05-19T11:03:51;15.90;94.40
51982;DHT22;37998;53.416;6.730;2023-05-19T11:08:44;16.20;94.70
51982;DHT22;37998;53.416;6.730;2023-05-19T11:11:15;16.20;95.80
51982;DHT22;37998;53.416;6.730;2023-05-19T11:13:54;16.20;96.00
51982;DHT22;37998;53.416;6.730;2023-05-19T11:16:27;16.20;95.90
51982;DHT22;37998;53.416;6.730;2023-05-19T11:19:00;16.30;96.40
51982;DHT22;37998;53.416;6.730;2023-05-19T11:21:47;16.20;95.70
51982;DHT22;37998;53.416;6.730;2023-05-19T11:27:25;15.90;95.30
51982;DHT22;37998;53.416;6.730;2023-05-19T11:29:53;15.80;96.00
51982;DHT22;37998;53.416;6.730;2023-05-19T11:32:20;15.80;96.70
51982;DHT22;37998;53.416;6.730;2023-05-19T11:34:48;15.90;97.40
51982;DHT22;37998;53.416;6.730;2023-05-19T11:37:15;16.00;97.70
51982;DHT22;37998;53.416;6.730;2023-05-19T11:39:41;16.10;98.20
51982;DHT22;37998;53.416;6.730;2023-05-19T11:42:08;16.20;98.90
51982;DHT22;37998;53.416;6.730;2023-05-19T11:44:37;16.30;98.80
51982;DHT22;37998;53.416;6.730;2023-05-19T11:47:06;16.30;98.70
51982;DHT22;37998;53.416;6.730;2023-05-19T11:49:32;16.40;98.70
51982;DHT22;37998;53.416;6.730;2023-05-19T11:51:59;16.40;97.80
51982;DHT22;37998;53.416;6.730;2023-05-19T11:54:31;16.40;98.00
51982;DHT22;37998;53.416;6.730;2023-05-19T11:57:00;16.40;99.70
51982;DHT22;37998;53.416;6.730;2023-05-19T11:59:35;16.60;99.90
51982;DHT22;37998;53.416;6.730;2023-05-19T12:02:06;16.70;99.90
51982;DHT22;37998;53.416;6.730;2023-05-19T12:04:38;16.70;99.90
51982;DHT22;37998;53.416;6.730;2023-05-19T12:07:04;16.70;99.90
51982;DHT22;37998;53.416;6.730;2023-05-19T12:09:31;16.70;99.90
51982;DHT22;37998;53.416;6.730;2023-05-19T12:11:57;16.90;99.90
51982;DHT22;37998;53.416;6.730;2023-05-19T12:14:25;16.80;99.90
51982;DHT22;37998;53.416;6.730;2023-05-19T12:16:51;16.90;99.90
51982;DHT22;37998;53.416;6.730;2023-05-19T12:19:17;17.00;99.90
51982;DHT22;37998;53.416;6.730;2023-05-19T12:21:43;17.10;99.90
51982;DHT22;37998;53.416;6.730;2023-05-19T12:24:10;16.90;99.90
51982;DHT22;37998;53.416;6.730;2023-05-19T12:26:36;16.80;99.90
51982;DHT22;37998;53.416;6.730;2023-05-19T12:29:04;16.80;99.90
51982;DHT22;37998;53.416;6.730;2023-05-19T12:31:32;16.90;99.90
51982;DHT22;37998;53.416;6.730;2023-05-19T12:33:59;16.80;99.90
51982;DHT22;37998;53.416;6.730;2023-05-19T12:36:26;16.70;99.90
51982;DHT22;37998;53.416;6.730;2023-05-19T12:38:54;16.70;99.90
51982;DHT22;37998;53.416;6.730;2023-05-19T12:41:20;16.60;99.90
51982;DHT22;37998;53.416;6.730;2023-05-19T12:43:47;16.60;99.90
51982;DHT22;37998;53.416;6.730;2023-05-19T12:46:13;16.60;99.90
51982;DHT22;37998;53.416;6.730;2023-05-19T12:48:45;16.70;99.90
51982;DHT22;37998;53.416;6.730;2023-05-19T12:51:20;16.60;99.90
51982;DHT22;37998;53.416;6.730;2023-05-19T12:53:46;16.60;99.90
51982;DHT22;37998;53.416;6.730;2023-05-19T12:56:13;16.70;99.90
51982;DHT22;37998;53.416;6.730;2023-05-19T12:58:42;16.80;99.90
51982;DHT22;37998;53.416;6.730;2023-05-19T13:01:17;16.90;99.90
51982;DHT22;37998;53.416;6.730;2023-05-19T13:03:43;17.10;99.90
51982;DHT22;37998;53.416;6.730;2023-05-19T13:06:10;17.10;99.90
51982;DHT22;37998;53.416;6.730;2023-05-19T13:08:37;17.10;99.90
51982;DHT22;37998;53.416;6.730;2023-05-19T13:11:06;17.20;99.90
51982;DHT22;37998;53.416;6.730;2023-05-19T13:13:32;17.20;99.90
51982;DHT22;37998;53.416;6.730;2023-05-19T13:16:00;17.20;99.90
51982;DHT22;37998;53.416;6.730;2023-05-19T13:18:26;17.00;99.90
51982;DHT22;37998;53.416;6.730;2023-05-19T13:20:55;16.90;99.90
51982;DHT22;37998;53.416;6.730;2023-05-19T13:23:23;16.80;99.90
51982;DHT22;37998;53.416;6.730;2023-05-19T13:25:50;16.80;99.90
51982;DHT22;37998;53.416;6.730;2023-05-19T13:28:16;16.80;99.90
51982;DHT22;37998;53.416;6.730;2023-05-19T13:30:42;16.80;99.90
51982;DHT22;37998;53.416;6.730;2023-05-19T13:33:09;16.80;99.90
51982;DHT22;37998;53.416;6.730;2023-05-19T13:35:36;16.90;99.90
51982;DHT22;37998;53.416;6.730;2023-05-19T13:38:05;16.90;99.90
51982;DHT22;37998;53.416;6.730;2023-05-19T13:40:31;17.10;99.90
51982;DHT22;37998;53.416;6.730;2023-05-19T13:43:00;17.20;99.90
51982;DHT22;37998;53.416;6.730;2023-05-19T13:45:26;17.30;99.90
51982;DHT22;37998;53.416;6.730;2023-05-19T13:47:51;17.20;99.90
51982;DHT22;37998;53.416;6.730;2023-05-19T13:50:17;17.10;99.90
51982;DHT22;37998;53.416;6.730;2023-05-19T13:52:43;17.10;99.90
51982;DHT22;37998;53.416;6.730;2023-05-19T13:55:09;17.20;99.90
51982;DHT22;37998;53.416;6.730;2023-05-19T13:57:35;17.10;99.90
51982;DHT22;37998;53.416;6.730;2023-05-19T14:00:01;17.10;99.90
51982;DHT22;37998;53.416;6.730;2023-05-19T14:02:37;17.00;99.90
51982;DHT22;37998;53.416;6.730;2023-05-19T14:05:04;17.00;99.90
51982;DHT22;37998;53.416;6.730;2023-05-19T14:07:30;17.00;99.90
51982;DHT22;37998;53.416;6.730;2023-05-19T14:09:56;17.00;99.90
51982;DHT22;37998;53.416;6.730;2023-05-19T14:12:24;17.10;99.90
51982;DHT22;37998;53.416;6.730;2023-05-19T14:14:50;17.10;99.90
51982;DHT22;37998;53.416;6.730;2023-05-19T14:17:16;17.20;99.90
51982;DHT22;37998;53.416;6.730;2023-05-19T14:19:42;17.20;99.90
51982;DHT22;37998;53.416;6.730;2023-05-19T14:22:08;17.20;99.90
51982;DHT22;37998;53.416;6.730;2023-05-19T14:24:34;17.20;99.90
51982;DHT22;37998;53.416;6.730;2023-05-19T14:27:00;17.30;99.90
51982;DHT22;37998;53.416;6.730;2023-05-19T14:29:27;17.30;99.90
51982;DHT22;37998;53.416;6.730;2023-05-19T14:31:55;17.30;99.90
51982;DHT22;37998;53.416;6.730;2023-05-19T14:34:21;17.40;99.90
51982;DHT22;37998;53.416;6.730;2023-05-19T14:36:47;17.30;99.90
51982;DHT22;37998;53.416;6.730;2023-05-19T14:39:13;17.30;99.90
51982;DHT22;37998;53.416;6.730;2023-05-19T14:41:42;17.20;99.90
51982;DHT22;37998;53.416;6.730;2023-05-19T14:44:08;17.40;99.90
51982;DHT22;37998;53.416;6.730;2023-05-19T14:46:34;17.40;99.90
51982;DHT22;37998;53.416;6.730;2023-05-19T14:48:59;17.30;99.90
51982;DHT22;37998;53.416;6.730;2023-05-19T14:51:26;17.20;99.90
51982;DHT22;37998;53.416;6.730;2023-05-19T14:53:51;17.20;99.90
51982;DHT22;37998;53.416;6.730;2023-05-19T14:56:17;17.30;99.90
51982;DHT22;37998;53.416;6.730;2023-05-19T14:58:44;17.20;99.90
51982;DHT22;37998;53.416;6.730;2023-05-19T15:01:10;17.30;99.90
51982;DHT22;37998;53.416;6.730;2023-05-19T15:03:35;17.20;99.90
51982;DHT22;37998;53.416;6.730;2023-05-19T15:06:01;17.20;99.90
51982;DHT22;37998;53.416;6.730;2023-05-19T15:08:27;17.10;99.90
51982;DHT22;37998;53.416;6.730;2023-05-19T15:10:53;17.10;99.90
51982;DHT22;37998;53.416;6.730;2023-05-19T15:13:19;17.10;99.90
51982;DHT22;37998;53.416;6.730;2023-05-19T15:15:46;17.00;99.90
51982;DHT22;37998;53.416;6.730;2023-05-19T15:18:14;17.00;99.90
51982;DHT22;37998;53.416;6.730;2023-05-19T15:20:43;17.00;99.90
51982;DHT22;37998;53.416;6.730;2023-05-19T15:23:11;17.00;99.90
51982;DHT22;37998;53.416;6.730;2023-05-19T15:25:37;16.90;99.90
51982;DHT22;37998;53.416;6.730;2023-05-19T15:28:03;17.00;99.90
51982;DHT22;37998;53.416;6.730;2023-05-19T15:30:29;16.90;99.90
51982;DHT22;37998;53.416;6.730;2023-05-19T15:32:55;16.90;99.90
51982;DHT22;37998;53.416;6.730;2023-05-19T15:35:21;16.80;99.90
51982;DHT22;37998;53.416;6.730;2023-05-19T15:37:47;16.80;99.90
51982;DHT22;37998;53.416;6.730;2023-05-19T15:40:13;16.70;99.90
51982;DHT22;37998;53.416;6.730;2023-05-19T15:42:39;16.80;99.90
51982;DHT22;37998;53.416;6.730;2023-05-19T15:45:05;16.80;99.90
51982;DHT22;37998;53.416;6.730;2023-05-19T15:47:32;16.80;99.90
51982;DHT22;37998;53.416;6.730;2023-05-19T15:49:58;16.80;99.90
51982;DHT22;37998;53.416;6.730;2023-05-19T15:52:24;16.80;99.90
51982;DHT22;37998;53.416;6.730;2023-05-19T15:54:50;16.80;99.90
51982;DHT22;37998;53.416;6.730;2023-05-19T15:57:16;16.70;99.90
51982;DHT22;37998;53.416;6.730;2023-05-19T15:59:42;16.60;99.90
51982;DHT22;37998;53.416;6.730;2023-05-19T16:02:07;16.60;99.90
51982;DHT22;37998;53.416;6.730;2023-05-19T16:04:33;16.70;99.90
51982;DHT22;37998;53.416;6.730;2023-05-19T16:07:01;16.70;99.90
51982;DHT22;37998;53.416;6.730;2023-05-19T16:09:27;16.70;99.90
51982;DHT22;37998;53.416;6.730;2023-05-19T16:11:53;16.70;99.90
51982;DHT22;37998;53.416;6.730;2023-05-19T16:14:19;16.80;99.90
51982;DHT22;37998;53.416;6.730;2023-05-19T16:16:45;16.80;99.70